Time;durP1;ratioP1;P1;durP2;ratioP2;P2;SDS_P1;SDS_P2;PMS_P1;PMS_P2;Temp;Humidity;BMP_temperature;BMP_pressure;BME280_temperature;BME280_humidity;BME280_pressure;Samples;Min_cycle;Max_cycle;Signal;HPM_P1;HPM_P2
2021/06/17 00:02:09;;;;;;;5.05;2.67;;;25.40;55.80;;;;;;5038000;28;20425;-53
2021/06/17 00:04:36;;;;;;;4.13;2.20;;;25.40;55.80;;;;;;5051772;28;20079;-52
2021/06/17 00:07:03;;;;;;;4.57;2.47;;;25.40;55.80;;;;;;5051872;28;20053;-52
2021/06/17 00:09:31;;;;;;;4.18;2.40;;;25.50;55.80;;;;;;5051980;28;20128;-53
2021/06/17 00:12:01;;;;;;;4.63;2.35;;;25.40;55.80;;;;;;5052568;28;20592;-53
2021/06/17 00:14:33;;;;;;;4.18;2.50;;;25.40;55.80;;;;;;5051476;28;20049;-53
2021/06/17 00:17:02;;;;;;;3.35;2.30;;;25.40;55.80;;;;;;5051688;28;20117;-51
2021/06/17 00:19:31;;;;;;;3.72;2.42;;;25.50;55.80;;;;;;5052458;28;20128;-49
2021/06/17 00:21:58;;;;;;;3.50;2.42;;;25.40;55.80;;;;;;5051761;28;20420;-53
2021/06/17 00:24:25;;;;;;;4.85;2.30;;;25.40;55.80;;;;;;5044799;28;20104;-55
2021/06/17 00:26:53;;;;;;;4.13;2.67;;;25.40;55.80;;;;;;5045528;28;20095;-51
2021/06/17 00:29:20;;;;;;;2.92;2.33;;;25.40;55.80;;;;;;5052227;28;20558;-55
2021/06/17 00:31:48;;;;;;;4.30;2.60;;;25.40;55.80;;;;;;5052715;28;20053;-53
2021/06/17 00:34:15;;;;;;;2.65;2.10;;;25.40;55.80;;;;;;5053664;28;20098;-50
2021/06/17 00:36:42;;;;;;;3.72;2.35;;;25.40;55.80;;;;;;5052459;28;20076;-54
2021/06/17 00:39:10;;;;;;;7.22;2.40;;;25.40;55.80;;;;;;5052428;28;20045;-55
2021/06/17 00:41:41;;;;;;;3.80;2.28;;;25.40;55.90;;;;;;5054338;28;20072;-53
2021/06/17 00:44:08;;;;;;;4.30;2.30;;;25.40;55.80;;;;;;5052102;28;20400;-53
2021/06/17 00:46:36;;;;;;;3.30;2.40;;;25.40;55.90;;;;;;5052467;28;20041;-55
2021/06/17 00:49:07;;;;;;;6.32;2.60;;;25.40;55.90;;;;;;5052052;28;20485;-55
2021/06/17 00:51:34;;;;;;;3.58;2.38;;;25.40;55.80;;;;;;5036161;28;20118;-53
2021/06/17 00:54:01;;;;;;;4.13;2.35;;;25.40;55.80;;;;;;5052550;28;20448;-54
2021/06/17 00:56:29;;;;;;;3.92;2.60;;;25.30;55.80;;;;;;5052856;28;20053;-50
2021/06/17 00:58:57;;;;;;;3.53;2.55;;;25.40;55.80;;;;;;5035601;28;20054;-52
2021/06/17 01:01:25;;;;;;;3.47;2.60;;;25.40;55.80;;;;;;5053335;28;20045;-53
2021/06/17 01:03:52;;;;;;;4.40;2.70;;;25.40;55.80;;;;;;5051897;28;20080;-52
2021/06/17 01:06:19;;;;;;;5.45;2.70;;;25.40;55.80;;;;;;5051133;28;20110;-51
2021/06/17 01:09:12;;;;;;;4.60;2.55;;;25.40;56.40;;;;;;5052234;28;20045;-50
2021/06/17 01:11:48;;;;;;;3.65;2.75;;;25.30;55.70;;;;;;5056529;28;20049;-52
2021/06/17 01:14:30;;;;;;;4.95;2.55;;;25.40;55.80;;;;;;5057551;28;20099;-53
2021/06/17 01:17:09;;;;;;;3.80;2.45;;;25.30;55.80;;;;;;5055228;28;20497;-51
2021/06/17 01:20:11;;;;;;;3.08;2.30;;;25.30;55.70;;;;;;5056854;28;20551;-49
2021/06/17 01:22:53;;;;;;;3.97;2.80;;;25.30;55.70;;;;;;5041332;28;20041;-53
2021/06/17 01:25:39;;;;;;;2.53;2.30;;;25.30;55.70;;;;;;5053386;28;20049;-53
2021/06/17 01:28:13;;;;;;;4.60;2.72;;;25.30;55.70;;;;;;5043574;28;20045;-57
2021/06/17 01:31:03;;;;;;;3.65;2.47;;;25.30;55.70;;;;;;5055794;28;20095;-57
2021/06/17 01:33:42;;;;;;;2.72;2.05;;;25.30;55.70;;;;;;5055777;28;20124;-55
2021/06/17 01:36:33;;;;;;;4.32;2.35;;;25.30;55.80;;;;;;5047580;28;20560;-55
2021/06/17 01:39:04;;;;;;;4.43;2.63;;;25.30;55.70;;;;;;5048897;28;20398;-54
2021/06/17 01:41:36;;;;;;;3.40;2.42;;;25.30;55.70;;;;;;5055471;28;20072;-55
2021/06/17 01:44:07;;;;;;;3.03;2.17;;;25.30;55.70;;;;;;5047191;28;20547;-54
2021/06/17 01:46:34;;;;;;;5.78;2.47;;;25.30;55.70;;;;;;5056570;28;20489;-51
2021/06/17 01:49:02;;;;;;;4.30;2.60;;;25.30;55.70;;;;;;5057456;28;20045;-53
2021/06/17 01:51:31;;;;;;;3.47;2.20;;;25.30;55.70;;;;;;5050766;28;20046;-52
2021/06/17 01:54:00;;;;;;;4.15;2.38;;;25.30;55.70;;;;;;5044754;28;20124;-54
2021/06/17 01:56:28;;;;;;;4.65;2.67;;;25.30;55.70;;;;;;5056243;28;20128;-55
2021/06/17 01:59:03;;;;;;;3.38;2.40;;;25.30;55.70;;;;;;5053815;28;20049;-54
2021/06/17 02:01:33;;;;;;;5.50;2.45;;;25.30;55.70;;;;;;5055082;28;20124;-50
2021/06/17 02:04:02;;;;;;;3.30;2.53;;;25.30;55.70;;;;;;5054274;28;20047;-54
2021/06/17 02:06:30;;;;;;;4.70;2.63;;;25.30;55.70;;;;;;5055390;28;20041;-50
2021/06/17 02:08:59;;;;;;;4.32;2.58;;;25.30;55.70;;;;;;5054924;28;20041;-52
2021/06/17 02:11:30;;;;;;;4.07;2.60;;;25.30;55.70;;;;;;5055370;28;20405;-52
2021/06/17 02:13:58;;;;;;;4.15;2.40;;;25.30;55.70;;;;;;5054257;28;20464;-51
2021/06/17 02:16:28;;;;;;;3.88;2.60;;;25.30;55.70;;;;;;5055104;28;20076;-50
2021/06/17 02:18:58;;;;;;;3.03;2.25;;;25.30;55.70;;;;;;5055333;28;20132;-49
2021/06/17 02:21:32;;;;;;;3.28;2.28;;;25.30;55.70;;;;;;5036496;28;20049;-53
2021/06/17 02:24:03;;;;;;;3.92;2.60;;;25.30;55.70;;;;;;5038327;28;20045;-50
2021/06/17 02:26:31;;;;;;;4.22;2.60;;;25.30;55.70;;;;;;5054836;28;20099;-53
2021/06/17 02:29:02;;;;;;;3.30;2.53;;;25.30;55.70;;;;;;5054841;28;20428;-52
2021/06/17 02:31:32;;;;;;;5.43;2.38;;;25.30;55.70;;;;;;5055100;28;20076;-52
2021/06/17 02:33:59;;;;;;;3.80;2.80;;;25.30;55.70;;;;;;5046649;28;20052;-52
2021/06/17 02:36:28;;;;;;;3.75;2.60;;;25.20;55.60;;;;;;5055028;28;20045;-54
2021/06/17 02:39:04;;;;;;;5.32;2.85;;;25.20;55.60;;;;;;5038564;28;20053;-51
2021/06/17 02:41:32;;;;;;;4.38;2.60;;;25.30;55.70;;;;;;5055619;28;20076;-52
2021/06/17 02:44:02;;;;;;;3.85;2.75;;;25.30;55.70;;;;;;5067701;28;20088;-50
2021/06/17 02:46:30;;;;;;;2.85;2.50;;;25.30;55.70;;;;;;5054596;28;20547;-52
2021/06/17 02:48:57;;;;;;;4.65;2.67;;;25.30;55.70;;;;;;5053502;28;20049;-53
2021/06/17 02:51:25;;;;;;;4.50;2.92;;;25.20;55.70;;;;;;5054573;28;20048;-51
2021/06/17 02:53:52;;;;;;;4.28;2.88;;;25.30;55.70;;;;;;5054575;28;20040;-54
2021/06/17 02:56:33;;;;;;;4.55;2.83;;;25.20;55.60;;;;;;5055309;28;20118;-53
2021/06/17 02:59:38;;;;;;;6.05;2.80;;;25.20;55.70;;;;;;5053850;28;20089;-51
2021/06/17 03:02:09;;;;;;;;;;;25.20;55.70;;;;;;5036997;28;20053;-50
2021/06/17 03:04:51;;;;;;;6.18;3.42;;;25.20;55.70;;;;;;5053506;28;19924;-54
2021/06/17 03:07:29;;;;;;;3.92;2.97;;;25.20;55.70;;;;;;5052148;28;20106;-53
2021/06/17 03:10:10;;;;;;;4.82;2.90;;;25.20;55.70;;;;;;5053830;28;20048;-50
2021/06/17 03:12:42;;;;;;;4.68;3.05;;;25.20;55.70;;;;;;5035994;28;20108;-53
2021/06/17 03:15:11;;;;;;;3.53;2.75;;;25.20;55.70;;;;;;5053186;28;20049;-55
2021/06/17 03:17:43;;;;;;;5.30;2.83;;;25.20;55.70;;;;;;5054217;28;20045;-53
2021/06/17 03:20:12;;;;;;;3.65;2.40;;;25.20;55.60;;;;;;5053533;28;20045;-52
2021/06/17 03:22:48;;;;;;;3.38;2.65;;;25.20;55.60;;;;;;5053862;28;20091;-52
2021/06/17 03:25:18;;;;;;;3.83;2.83;;;25.20;55.60;;;;;;5035956;28;20068;-57
2021/06/17 03:27:50;;;;;;;3.33;2.50;;;25.20;55.60;;;;;;5035826;28;20096;-53
2021/06/17 03:30:22;;;;;;;4.75;2.70;;;25.20;55.70;;;;;;5054023;28;20045;-52
2021/06/17 03:32:51;;;;;;;4.40;2.88;;;25.20;55.60;;;;;;5053912;28;20045;-53
2021/06/17 03:35:19;;;;;;;3.38;2.53;;;25.20;55.50;;;;;;5039060;28;20097;-54
2021/06/17 03:37:52;;;;;;;4.45;2.72;;;25.30;55.60;;;;;;5038157;28;20053;-51
2021/06/17 03:40:21;;;;;;;3.25;2.63;;;25.20;55.50;;;;;;5054248;28;20045;-53
2021/06/17 03:42:53;;;;;;;3.47;2.50;;;25.30;55.60;;;;;;5040555;28;20053;-53
2021/06/17 03:45:23;;;;;;;4.30;2.70;;;25.20;55.50;;;;;;5037987;28;20049;-54
2021/06/17 03:47:51;;;;;;;2.97;2.47;;;25.20;55.50;;;;;;5050159;28;20045;-51
2021/06/17 03:50:23;;;;;;;3.47;2.30;;;25.30;55.60;;;;;;5052013;28;20052;-54
2021/06/17 03:52:54;;;;;;;3.92;2.85;;;25.30;55.60;;;;;;5064377;28;20500;-50
2021/06/17 03:55:21;;;;;;;3.95;2.70;;;25.30;55.50;;;;;;5057481;28;20051;-53
2021/06/17 03:57:51;;;;;;;3.80;2.80;;;25.30;55.50;;;;;;5051762;28;20052;-51
2021/06/17 04:00:19;;;;;;;5.18;2.55;;;25.30;55.50;;;;;;5051501;28;20064;-54
2021/06/17 04:02:47;;;;;;;5.10;2.97;;;25.30;55.40;;;;;;5043741;28;20449;-51
2021/06/17 04:05:14;;;;;;;5.85;2.70;;;25.30;55.40;;;;;;5045062;28;20505;-49
2021/06/17 04:07:45;;;;;;;3.40;2.63;;;25.30;55.40;;;;;;5053846;28;20073;-52
2021/06/17 04:10:15;;;;;;;4.15;2.88;;;25.30;55.40;;;;;;5045547;28;20053;-49
2021/06/17 04:12:43;;;;;;;5.70;3.13;;;25.30;55.40;;;;;;5043497;28;20106;-51
2021/06/17 04:15:11;;;;;;;5.32;2.83;;;25.30;55.40;;;;;;5052807;28;20044;-53
2021/06/17 04:17:42;;;;;;;3.58;2.83;;;25.40;55.30;;;;;;5052955;28;20052;-50
2021/06/17 04:20:20;;;;;;;3.10;2.10;;;25.40;55.10;;;;;;5052873;28;20444;-53
2021/06/17 04:22:50;;;;;;;3.25;2.50;;;25.40;55.10;;;;;;5053624;28;20551;-51
2021/06/17 04:25:19;;;;;;;3.60;2.47;;;25.50;55.00;;;;;;5052576;28;20099;-52
2021/06/17 04:27:52;;;;;;;4.60;2.60;;;25.50;54.80;;;;;;5053648;28;20053;-49
2021/06/17 04:30:20;;;;;;;5.65;2.72;;;25.60;54.80;;;;;;5052399;28;20052;-51
2021/06/17 04:32:50;;;;;;;5.18;2.97;;;25.60;54.80;;;;;;5050489;28;20045;-51
2021/06/17 04:35:20;;;;;;;5.95;2.78;;;25.60;54.70;;;;;;5039563;28;20056;-50
2021/06/17 04:37:49;;;;;;;3.33;2.70;;;25.60;54.60;;;;;;5052289;28;20045;-53
2021/06/17 04:40:16;;;;;;;3.60;2.60;;;25.70;54.60;;;;;;5052005;28;20041;-51
2021/06/17 04:42:43;;;;;;;3.35;2.35;;;25.70;54.50;;;;;;5053612;28;20084;-49
2021/06/17 04:45:12;;;;;;;5.35;2.83;;;25.70;54.50;;;;;;5051287;28;20048;-55
2021/06/17 04:47:48;;;;;;;4.25;3.13;;;25.80;54.40;;;;;;5051499;28;20069;-53
2021/06/17 04:50:18;;;;;;;3.80;2.90;;;25.80;54.40;;;;;;5068691;28;20048;-53
2021/06/17 04:52:51;;;;;;;4.32;2.50;;;25.80;54.30;;;;;;5035270;28;20095;-52
2021/06/17 04:55:18;;;;;;;4.13;2.57;;;25.90;54.40;;;;;;5035184;28;20053;-52
2021/06/17 04:57:48;;;;;;;4.40;2.75;;;25.90;54.30;;;;;;5052495;28;20049;-51
2021/06/17 05:00:16;;;;;;;2.88;2.10;;;25.90;54.30;;;;;;5050948;28;20114;-53
2021/06/17 05:02:43;;;;;;;3.72;2.67;;;25.90;54.30;;;;;;5053025;28;20052;-51
2021/06/17 05:05:11;;;;;;;4.95;3.00;;;26.00;54.30;;;;;;5052194;28;20095;-55
2021/06/17 05:07:53;;;;;;;3.65;2.70;;;26.00;54.20;;;;;;5050782;28;20566;-53
2021/06/17 05:13:06;;;;;;;4.97;3.03;;;26.10;54.20;;;;;;5033502;28;20096;-52
2021/06/17 05:15:33;;;;;;;4.47;3.03;;;26.10;54.10;;;;;;5034797;28;20504;-51
2021/06/17 05:18:00;;;;;;;3.60;2.65;;;26.10;54.10;;;;;;5052369;28;20075;-51
2021/06/17 05:20:27;;;;;;;4.57;2.60;;;26.10;54.00;;;;;;5045147;28;20072;-52
2021/06/17 05:22:57;;;;;;;3.88;2.72;;;26.20;54.00;;;;;;5048970;28;20064;-54
2021/06/17 05:25:26;;;;;;;10.23;3.13;;;26.20;54.00;;;;;;5042435;28;20099;-51
2021/06/17 05:27:53;;;;;;;5.28;2.33;;;26.20;54.00;;;;;;5050166;28;20045;-53
2021/06/17 05:30:21;;;;;;;2.85;2.55;;;26.20;54.60;;;;;;5050605;28;20083;-53
2021/06/17 05:32:48;;;;;;;4.15;2.47;;;26.20;53.90;;;;;;5055003;28;20102;-53
2021/06/17 05:35:15;;;;;;;3.72;2.75;;;26.20;53.90;;;;;;5051301;28;20049;-52
2021/06/17 05:37:43;;;;;;;3.38;2.72;;;26.20;53.80;;;;;;5049977;28;20048;-55
2021/06/17 05:40:10;;;;;;;4.50;2.70;;;26.20;53.80;;;;;;5050081;28;20049;-54
2021/06/17 05:42:37;;;;;;;3.72;2.47;;;26.20;53.70;;;;;;5050003;28;20041;-55
2021/06/17 05:45:05;;;;;;;4.07;2.65;;;26.20;53.80;;;;;;5052694;28;20045;-54
2021/06/17 05:47:32;;;;;;;3.53;2.47;;;26.20;53.80;;;;;;5045203;28;20160;-52
2021/06/17 05:49:59;;;;;;;4.60;2.60;;;26.20;53.70;;;;;;5041811;28;20041;-52
2021/06/17 05:52:27;;;;;;;3.15;2.33;;;26.20;53.80;;;;;;5052508;28;20053;-52
2021/06/17 05:54:54;;;;;;;3.60;2.63;;;26.20;53.70;;;;;;5050077;28;20067;-56
2021/06/17 05:57:21;;;;;;;5.47;2.45;;;26.30;53.80;;;;;;5053192;28;20386;-50
2021/06/17 05:59:48;;;;;;;5.65;3.03;;;26.30;53.80;;;;;;5053696;28;20053;-54
2021/06/17 06:02:16;;;;;;;6.57;2.83;;;26.30;53.80;;;;;;5055978;28;20076;-53
2021/06/17 06:04:43;;;;;;;6.03;2.80;;;26.30;53.80;;;;;;5053286;28;20048;-50
2021/06/17 06:07:10;;;;;;;3.33;2.70;;;26.30;53.80;;;;;;5054430;28;20095;-52
2021/06/17 06:09:37;;;;;;;4.28;2.60;;;26.30;53.80;;;;;;5054611;28;20045;-52
2021/06/17 06:12:06;;;;;;;3.72;2.10;;;26.30;53.80;;;;;;5055463;28;20056;-52
2021/06/17 06:14:34;;;;;;;3.13;2.28;;;26.30;53.80;;;;;;5037050;28;20053;-52
2021/06/17 06:17:01;;;;;;;3.47;2.78;;;26.30;53.80;;;;;;5052145;28;20052;-54
2021/06/17 06:19:30;;;;;;;4.43;2.80;;;26.30;53.70;;;;;;5055313;28;20049;-53
2021/06/17 06:21:57;;;;;;;4.13;2.70;;;26.30;53.80;;;;;;5043344;28;20067;-55
2021/06/17 06:24:25;;;;;;;6.63;2.55;;;26.30;54.00;;;;;;5055431;28;20045;-54
2021/06/17 06:26:57;;;;;;;5.60;3.00;;;26.30;54.30;;;;;;5053557;28;20053;-53
2021/06/17 06:29:24;;;;;;;4.13;2.45;;;26.30;54.40;;;;;;5054493;28;20102;-55
2021/06/17 06:31:51;;;;;;;4.72;2.90;;;26.30;54.80;;;;;;5043215;28;20477;-52
2021/06/17 06:34:19;;;;;;;4.78;2.70;;;26.30;55.30;;;;;;5048962;28;20101;-52
2021/06/17 06:36:46;;;;;;;5.40;2.63;;;26.30;55.50;;;;;;5055350;28;20051;-55
2021/06/17 06:39:13;;;;;;;5.30;2.75;;;26.30;55.60;;;;;;5054075;28;20044;-51
2021/06/17 06:41:41;;;;;;;5.20;3.17;;;26.30;55.70;;;;;;5046330;28;20452;-51
2021/06/17 06:44:10;;;;;;;4.90;3.00;;;26.30;55.80;;;;;;5040619;28;20076;-52
2021/06/17 06:46:41;;;;;;;6.05;3.15;;;26.30;56.20;;;;;;5053389;28;20052;-52
2021/06/17 06:49:09;;;;;;;7.00;2.97;;;26.30;56.00;;;;;;5052037;28;20072;-53
2021/06/17 06:51:39;;;;;;;4.53;2.80;;;26.30;56.30;;;;;;5052963;28;20107;-52
2021/06/17 06:54:07;;;;;;;6.57;2.58;;;26.30;56.50;;;;;;5052980;28;20049;-53
2021/06/17 06:56:38;;;;;;;3.88;2.90;;;26.30;56.30;;;;;;5052559;28;20147;-53
2021/06/17 06:59:06;;;;;;;5.70;2.60;;;26.30;56.20;;;;;;5053324;28;20061;-50
2021/06/17 07:01:33;;;;;;;7.95;3.17;;;26.30;56.20;;;;;;5053706;28;20076;-48
2021/06/17 07:04:00;;;;;;;8.05;3.03;;;26.30;56.50;;;;;;5053494;28;20463;-53
2021/06/17 07:06:28;;;;;;;7.30;3.00;;;26.30;56.60;;;;;;5055110;28;20040;-56
2021/06/17 07:08:55;;;;;;;6.60;2.42;;;26.30;56.60;;;;;;5053131;28;20048;-50
2021/06/17 07:11:22;;;;;;;5.70;2.88;;;26.30;56.60;;;;;;5054267;28;20049;-54
2021/06/17 07:13:50;;;;;;;9.00;3.00;;;26.40;56.90;;;;;;5036878;28;20057;-54
2021/06/17 07:16:17;;;;;;;8.98;2.92;;;26.40;57.10;;;;;;5054633;28;20053;-52
2021/06/17 07:18:44;;;;;;;9.60;3.20;;;26.40;57.20;;;;;;5042770;28;20080;-51
2021/06/17 07:21:14;;;;;;;6.07;2.97;;;26.40;57.10;;;;;;5036286;28;20049;-55
2021/06/17 07:23:49;;;;;;;7.05;2.70;;;26.40;56.90;;;;;;5052415;28;20128;-51
2021/06/17 07:26:20;;;;;;;4.70;3.03;;;26.40;56.80;;;;;;5035599;28;20111;-51
2021/06/17 07:28:48;;;;;;;4.45;2.55;;;26.40;56.60;;;;;;5052609;28;20069;-52
2021/06/17 07:31:15;;;;;;;11.43;3.10;;;26.40;56.50;;;;;;5038835;28;20100;-50
2021/06/17 07:33:42;;;;;;;9.68;3.03;;;26.40;56.40;;;;;;5050860;28;20049;-54
2021/06/17 07:36:12;;;;;;;9.02;3.08;;;26.40;56.30;;;;;;5053187;28;20417;-53
2021/06/17 07:38:39;;;;;;;9.10;2.92;;;26.40;56.20;;;;;;5052949;28;20140;-52
2021/06/17 07:41:07;;;;;;;8.05;2.90;;;26.40;56.10;;;;;;5064487;28;20079;-52
2021/06/17 07:43:34;;;;;;;6.15;3.28;;;26.40;56.00;;;;;;5057078;28;20069;-51
2021/06/17 07:46:04;;;;;;;4.97;2.95;;;26.40;55.90;;;;;;5052276;28;20045;-54
2021/06/17 07:48:32;;;;;;;6.57;2.85;;;26.40;55.80;;;;;;5051496;28;20045;-52
2021/06/17 07:51:00;;;;;;;4.38;3.20;;;26.40;55.80;;;;;;5052905;28;20060;-54
2021/06/17 07:53:27;;;;;;;3.63;2.83;;;26.40;55.80;;;;;;5044909;28;20053;-56
2021/06/17 07:55:54;;;;;;;4.25;2.63;;;26.40;55.70;;;;;;5035747;28;20091;-51
2021/06/17 07:58:21;;;;;;;8.82;3.45;;;26.40;55.60;;;;;;5040998;28;20048;-54
2021/06/17 08:00:48;;;;;;;4.97;2.67;;;26.40;55.60;;;;;;5052609;28;20053;-53
2021/06/17 08:03:16;;;;;;;2.97;2.40;;;26.40;55.60;;;;;;5049313;28;20041;-55
2021/06/17 08:05:43;;;;;;;4.53;2.42;;;26.40;55.50;;;;;;5039665;28;20091;-55
2021/06/17 08:08:10;;;;;;;4.43;2.63;;;26.40;55.50;;;;;;5053544;28;20037;-53
2021/06/17 08:10:37;;;;;;;9.65;3.13;;;26.40;55.40;;;;;;5053023;28;20109;-52
2021/06/17 08:13:05;;;;;;;7.38;2.55;;;26.50;55.50;;;;;;5053504;28;20048;-54
2021/06/17 08:15:32;;;;;;;6.03;3.22;;;26.40;55.40;;;;;;5035996;28;20041;-55
2021/06/17 08:17:59;;;;;;;5.75;3.40;;;26.50;55.50;;;;;;5051453;28;20052;-51
2021/06/17 08:20:27;;;;;;;7.57;3.58;;;26.40;55.40;;;;;;5050635;28;20049;-54
2021/06/17 08:22:54;;;;;;;7.32;3.63;;;26.50;55.60;;;;;;5033866;28;20053;-54
2021/06/17 08:25:21;;;;;;;5.55;3.20;;;26.50;55.60;;;;;;5054092;28;20048;-55
2021/06/17 08:27:48;;;;;;;9.25;3.88;;;26.50;55.60;;;;;;5053164;28;20083;-53
2021/06/17 08:30:18;;;;;;;7.32;4.18;;;26.50;55.60;;;;;;5051779;28;20040;-49
2021/06/17 08:32:48;;;;;;;13.32;5.15;;;26.50;55.60;;;;;;5051861;28;20099;-54
2021/06/17 08:35:16;;;;;;;11.60;4.50;;;26.50;55.70;;;;;;5052434;28;20048;-55
2021/06/17 08:37:43;;;;;;;10.25;5.95;;;26.50;55.80;;;;;;5052385;28;20463;-54
2021/06/17 08:40:11;;;;;;;10.68;6.70;;;26.50;55.80;;;;;;5051106;28;20048;-55
2021/06/17 08:42:38;;;;;;;17.50;6.80;;;26.50;55.80;;;;;;5050768;28;20041;-55
2021/06/17 08:45:09;;;;;;;15.70;7.38;;;26.50;55.90;;;;;;5051289;28;20094;-53
2021/06/17 08:47:38;;;;;;;14.82;8.38;;;26.50;56.10;;;;;;5051528;28;20045;-55
2021/06/17 08:50:09;;;;;;;15.75;8.23;;;26.50;56.20;;;;;;5042543;28;20493;-53
2021/06/17 08:52:41;;;;;;;19.67;8.13;;;26.50;56.20;;;;;;5044191;28;20107;-54
2021/06/17 08:55:21;;;;;;;16.00;7.78;;;26.50;56.30;;;;;;5052351;28;20083;-55
2021/06/17 08:57:52;;;;;;;20.38;8.82;;;26.50;56.50;;;;;;5042483;28;20433;-55
2021/06/17 09:00:20;;;;;;;14.65;8.45;;;26.50;56.30;;;;;;5035352;28;20065;-54
2021/06/17 09:03:02;;;;;;;14.35;8.50;;;26.50;56.30;;;;;;5042613;28;20080;-54
2021/06/17 09:05:30;;;;;;;16.27;7.93;;;26.50;56.30;;;;;;5052657;28;20049;-53
2021/06/17 09:07:59;;;;;;;14.77;8.35;;;26.50;56.20;;;;;;5044141;28;20497;-54
2021/06/17 09:10:27;;;;;;;19.23;8.95;;;26.50;56.20;;;;;;5042504;28;20045;-54
2021/06/17 09:12:57;;;;;;;13.57;7.90;;;26.50;56.30;;;;;;5044035;28;20096;-54
2021/06/17 09:15:32;;;;;;;13.63;8.40;;;26.50;56.30;;;;;;5038406;28;20057;-52
2021/06/17 09:18:18;;;;;;;13.30;7.32;;;26.50;56.20;;;;;;5036156;28;20049;-54
2021/06/17 09:20:53;;;;;;;13.80;7.97;;;26.50;56.20;;;;;;5035413;28;20123;-51
2021/06/17 09:23:20;;;;;;;14.50;7.78;;;26.50;56.20;;;;;;5041827;28;20048;-50
2021/06/17 09:25:48;;;;;;;13.15;7.68;;;26.50;56.10;;;;;;5051464;28;20080;-51
2021/06/17 09:28:16;;;;;;;18.98;7.20;;;26.50;56.10;;;;;;5051374;28;20405;-53
2021/06/17 09:30:43;;;;;;;12.88;6.75;;;26.60;56.30;;;;;;5046864;28;20397;-53
2021/06/17 09:33:14;;;;;;;13.55;7.15;;;26.50;56.20;;;;;;5048617;28;20082;-52
2021/06/17 09:35:52;;;;;;;14.18;7.10;;;26.60;56.30;;;;;;5067889;28;20079;-54
2021/06/17 09:38:20;;;;;;;13.18;6.43;;;26.60;56.40;;;;;;5054073;28;20103;-53
2021/06/17 09:40:51;;;;;;;15.60;6.85;;;26.60;56.40;;;;;;5055696;28;20048;-54
2021/06/17 09:43:24;;;;;;;12.57;6.25;;;26.60;56.40;;;;;;5053742;28;20076;-51
2021/06/17 09:46:06;;;;;;;12.70;6.77;;;26.60;56.40;;;;;;5053988;28;20045;-56
2021/06/17 09:48:44;;;;;;;13.80;6.60;;;26.60;56.40;;;;;;5056251;28;20098;-54
2021/06/17 09:51:30;;;;;;;16.40;7.68;;;26.60;56.60;;;;;;5054277;28;20396;-52
2021/06/17 09:54:21;;;;;;;15.88;7.85;;;26.60;56.70;;;;;;5047463;28;20042;-55
2021/06/17 09:56:51;;;;;;;18.83;9.20;;;26.60;56.80;;;;;;5039025;28;20107;-53
2021/06/17 09:59:56;;;;;;;17.88;9.02;;;26.60;57.00;;;;;;5038229;28;20060;-52
2021/06/17 10:02:32;;;;;;;19.75;8.80;;;26.60;57.10;;;;;;5049753;28;20493;-54
2021/06/17 10:05:19;;;;;;;18.02;8.60;;;26.60;57.20;;;;;;5042777;28;20050;-53
2021/06/17 10:07:47;;;;;;;20.10;9.70;;;26.60;57.20;;;;;;5054733;28;20041;-56
2021/06/17 10:10:17;;;;;;;21.27;10.10;;;26.60;57.20;;;;;;5055255;28;20127;-56
2021/06/17 10:12:45;;;;;;;28.25;10.40;;;26.60;57.30;;;;;;5042940;28;20405;-54
2021/06/17 10:15:13;;;;;;;20.30;9.68;;;26.60;57.30;;;;;;5039978;28;20444;-55
2021/06/17 10:17:41;;;;;;;22.98;10.00;;;26.60;57.10;;;;;;5051766;28;20053;-56
2021/06/17 10:20:12;;;;;;;22.17;9.00;;;26.70;57.10;;;;;;5056082;28;20049;-56
2021/06/17 10:22:40;;;;;;;20.52;9.65;;;26.70;57.20;;;;;;5055027;28;20044;-56
2021/06/17 10:25:10;;;;;;;25.38;10.25;;;26.70;57.10;;;;;;5056048;28;20045;-56
2021/06/17 10:27:41;;;;;;;20.13;9.52;;;26.70;57.10;;;;;;5053777;28;20048;-56
2021/06/17 10:30:10;;;;;;;23.58;10.38;;;26.70;57.00;;;;;;5054980;28;20102;-56
2021/06/17 10:32:46;;;;;;;22.25;10.05;;;26.70;57.00;;;;;;5054608;28;20098;-52
2021/06/17 10:35:27;;;;;;;23.27;9.95;;;26.70;57.00;;;;;;5055898;28;20052;-51
2021/06/17 10:38:03;;;;;;;18.80;9.80;;;26.70;57.00;;;;;;5054735;28;20053;-53
2021/06/17 10:40:34;;;;;;;18.77;9.23;;;26.70;57.00;;;;;;5054892;28;20103;-55
2021/06/17 10:43:21;;;;;;;22.80;9.95;;;26.70;56.90;;;;;;5053508;28;20459;-57
2021/06/17 10:45:51;;;;;;;21.02;9.32;;;26.70;56.90;;;;;;5042509;28;20053;-54
2021/06/17 10:48:25;;;;;;;19.00;9.75;;;26.70;56.90;;;;;;5047950;28;20139;-54
2021/06/17 10:51:01;;;;;;;23.00;9.93;;;26.70;56.90;;;;;;5054373;28;20566;-56
2021/06/17 10:53:44;;;;;;;18.83;10.02;;;26.70;56.90;;;;;;5054292;28;20174;-55
2021/06/17 10:56:18;;;;;;;20.88;9.77;;;26.70;56.90;;;;;;5042330;28;20103;-58
2021/06/17 10:58:45;;;;;;;22.25;10.10;;;26.70;56.80;;;;;;5039059;28;20065;-58
2021/06/17 11:01:30;;;;;;;22.45;10.55;;;26.70;56.80;;;;;;5051060;28;20048;-54
2021/06/17 11:04:18;;;;;;;21.67;10.73;;;26.70;56.70;;;;;;5041454;28;20056;-56
2021/06/17 11:06:48;;;;;;;19.75;9.75;;;26.70;56.70;;;;;;5041031;28;20505;-56
2021/06/17 11:09:39;;;;;;;20.52;9.82;;;26.70;56.70;;;;;;5055425;28;20045;-54
2021/06/17 11:12:19;;;;;;;18.67;9.38;;;26.70;56.70;;;;;;5037806;28;20497;-58
2021/06/17 11:14:49;;;;;;;17.88;9.68;;;26.60;56.60;;;;;;5053844;28;20102;-53
2021/06/17 11:17:32;;;;;;;22.05;9.63;;;26.70;56.70;;;;;;5055380;28;20447;-52
2021/06/17 11:20:07;;;;;;;18.80;9.50;;;26.70;56.70;;;;;;5053221;28;20114;-55
2021/06/17 11:22:41;;;;;;;18.52;9.48;;;26.70;56.60;;;;;;5052425;28;20056;-53
2021/06/17 11:25:18;;;;;;;19.80;9.32;;;26.70;56.60;;;;;;5053284;28;20045;-52
2021/06/17 11:27:59;;;;;;;22.30;9.77;;;26.70;56.60;;;;;;5036016;28;20049;-54
2021/06/17 11:30:49;;;;;;;17.65;9.00;;;26.70;56.50;;;;;;5035346;28;20045;-56
2021/06/17 11:35:57;;;;;;;19.23;9.30;;;26.60;56.40;;;;;;5036692;28;20447;-54
2021/06/17 11:38:29;;;;;;;14.98;8.85;;;26.60;56.40;;;;;;5037570;28;20103;-52
2021/06/17 11:40:58;;;;;;;15.45;9.05;;;26.70;56.40;;;;;;5053481;28;20044;-56
2021/06/17 11:43:29;;;;;;;17.80;9.20;;;26.60;56.40;;;;;;5036546;28;20044;-58
2021/06/17 11:45:56;;;;;;;17.27;9.68;;;26.70;56.40;;;;;;5049494;28;20049;-54
2021/06/17 11:48:25;;;;;;;15.90;8.52;;;26.60;56.30;;;;;;5035535;28;20532;-57
2021/06/17 11:50:54;;;;;;;15.65;8.32;;;26.60;56.30;;;;;;5035735;28;20493;-52
2021/06/17 11:53:26;;;;;;;13.80;8.75;;;26.70;56.40;;;;;;5037002;28;20064;-55
2021/06/17 11:55:55;;;;;;;16.38;8.40;;;26.60;56.30;;;;;;5035856;28;20053;-54
2021/06/17 11:58:27;;;;;;;15.68;8.75;;;26.60;56.30;;;;;;5036686;28;20049;-58
2021/06/17 12:00:55;;;;;;;17.38;8.40;;;26.70;56.30;;;;;;5052417;28;20080;-55
2021/06/17 12:03:26;;;;;;;13.73;7.72;;;26.60;56.20;;;;;;5054115;28;20045;-58
2021/06/17 12:06:09;;;;;;;14.98;8.80;;;26.70;56.20;;;;;;5039030;28;20052;-54
2021/06/17 12:08:37;;;;;;;14.18;7.88;;;26.70;56.20;;;;;;5053352;28;20041;-54
2021/06/17 12:11:21;;;;;;;16.15;8.20;;;26.60;56.20;;;;;;5052862;28;20087;-55
2021/06/17 12:13:50;;;;;;;15.57;8.45;;;26.60;56.10;;;;;;5052701;28;20045;-54
2021/06/17 12:16:18;;;;;;;15.90;7.97;;;26.70;56.20;;;;;;5050568;28;20102;-51
2021/06/17 12:18:50;;;;;;;17.65;8.23;;;26.70;56.20;;;;;;5054071;28;20049;-55
2021/06/17 12:21:29;;;;;;;13.38;8.30;;;26.70;56.20;;;;;;5052547;28;20106;-51
2021/06/17 12:23:57;;;;;;;16.77;8.18;;;26.70;56.20;;;;;;5052443;28;20041;-56
2021/06/17 12:26:34;;;;;;;14.70;7.57;;;26.70;56.20;;;;;;5054258;28;20486;-53
2021/06/17 12:29:10;;;;;;;14.85;7.45;;;26.70;56.10;;;;;;5051695;28;20124;-50
2021/06/17 12:31:40;;;;;;;13.23;7.32;;;26.70;56.20;;;;;;5052250;28;20076;-56
2021/06/17 12:34:09;;;;;;;14.65;7.70;;;26.70;56.20;;;;;;5053421;28;20497;-53
2021/06/17 12:36:37;;;;;;;15.23;8.07;;;26.70;56.20;;;;;;5037921;28;20049;-56
2021/06/17 12:39:12;;;;;;;14.30;7.63;;;26.70;56.10;;;;;;5036008;28;20069;-55
2021/06/17 12:41:42;;;;;;;13.88;7.10;;;26.70;56.20;;;;;;5035769;28;20049;-55
2021/06/17 12:44:09;;;;;;;14.05;7.45;;;26.70;56.20;;;;;;5049088;28;20476;-56
2021/06/17 12:46:40;;;;;;;11.93;7.20;;;26.70;56.20;;;;;;5039696;28;20046;-54
2021/06/17 12:49:28;;;;;;;12.80;7.65;;;26.70;56.20;;;;;;5048254;28;20080;-56
2021/06/17 12:52:07;;;;;;;15.07;7.53;;;26.70;56.20;;;;;;5052012;28;20080;-56
2021/06/17 12:54:48;;;;;;;14.20;7.30;;;26.70;56.20;;;;;;5038257;28;20049;-54
2021/06/17 12:57:18;;;;;;;12.02;7.30;;;26.70;56.20;;;;;;5037176;28;20103;-54
2021/06/17 13:00:18;;;;;;;11.38;6.97;;;26.70;56.20;;;;;;5051770;28;20048;-53
2021/06/17 13:02:50;;;;;;;12.38;7.18;;;26.70;56.20;;;;;;5053666;28;20053;-57
2021/06/17 13:05:20;;;;;;;11.80;6.88;;;26.70;56.20;;;;;;5051610;28;20428;-56
2021/06/17 13:08:10;;;;;;;12.80;7.55;;;26.70;56.20;;;;;;5051465;28;20048;-56
2021/06/17 13:10:42;;;;;;;14.45;7.57;;;26.70;56.20;;;;;;5034981;28;20050;-53